createdAt,value
2018-09-10T00:01:23.383Z,99.90
2018-09-10T00:03:51.837Z,99.90
2018-09-10T00:06:21.077Z,99.90
2018-09-10T00:08:50.488Z,99.90
2018-09-10T00:11:20.104Z,99.90
2018-09-10T00:13:48.619Z,99.90
2018-09-10T00:16:17.877Z,99.90
2018-09-10T00:18:46.390Z,99.90
2018-09-10T00:21:15.077Z,99.90
2018-09-10T00:23:43.564Z,99.90
2018-09-10T00:26:12.066Z,99.90
2018-09-10T00:28:40.679Z,99.90
2018-09-10T00:31:09.091Z,99.90
2018-09-10T00:33:37.528Z,99.90
2018-09-10T00:36:05.942Z,99.90
2018-09-10T00:38:34.384Z,99.90
2018-09-10T00:41:02.858Z,99.90
2018-09-10T00:43:31.292Z,99.90
2018-09-10T00:45:59.775Z,99.90
2018-09-10T00:48:28.210Z,99.90
2018-09-10T00:50:56.944Z,99.90
2018-09-10T00:53:25.403Z,99.90
2018-09-10T00:55:54.395Z,99.90
2018-09-10T00:58:22.834Z,99.90
2018-09-10T01:00:51.382Z,99.90
2018-09-10T01:03:19.789Z,99.90
2018-09-10T01:05:48.278Z,99.90
2018-09-10T01:08:16.803Z,99.90
2018-09-10T01:10:45.229Z,99.90
2018-09-10T01:13:14.256Z,99.90
2018-09-10T01:15:42.729Z,99.90
2018-09-10T01:18:11.270Z,99.90
2018-09-10T01:20:40.536Z,99.90
2018-09-10T01:23:09.025Z,99.90
2018-09-10T01:25:37.489Z,99.90
2018-09-10T01:28:05.895Z,99.90
2018-09-10T01:30:34.430Z,99.90
2018-09-10T01:33:02.945Z,99.90
2018-09-10T01:35:33.232Z,99.90
2018-09-10T01:38:01.721Z,99.90
2018-09-10T01:40:30.304Z,99.90
2018-09-10T01:42:59.580Z,99.90
2018-09-10T01:45:28.006Z,99.90
2018-09-10T01:47:56.458Z,99.90
2018-09-10T01:50:24.931Z,99.90
2018-09-10T01:52:53.512Z,99.90
2018-09-10T01:55:22.642Z,99.90
2018-09-10T01:57:51.186Z,99.90
2018-09-10T02:00:19.651Z,99.90
2018-09-10T02:02:48.144Z,99.90
2018-09-10T02:05:16.637Z,99.90
2018-09-10T02:07:45.123Z,99.90
2018-09-10T02:10:14.304Z,99.90
2018-09-10T02:12:42.870Z,99.90
2018-09-10T02:15:11.301Z,99.90
2018-09-10T02:17:39.760Z,99.90
2018-09-10T02:20:08.343Z,99.90
2018-09-10T02:22:37.609Z,99.90
2018-09-10T02:25:06.086Z,99.90
2018-09-10T02:27:34.559Z,99.90
2018-09-10T02:30:02.973Z,99.90
2018-09-10T02:32:31.386Z,99.90
2018-09-10T02:35:00.598Z,99.90
2018-09-10T02:37:29.718Z,99.90
2018-09-10T02:39:58.149Z,99.90
2018-09-10T02:42:26.683Z,99.90
2018-09-10T02:44:55.776Z,99.90
2018-09-10T02:47:24.839Z,99.90
2018-09-10T02:49:53.444Z,99.90
2018-09-10T02:52:21.978Z,99.90
2018-09-10T02:54:50.425Z,99.90
2018-09-10T02:57:18.957Z,99.90
2018-09-10T02:59:48.011Z,99.90
2018-09-10T03:02:16.487Z,99.90
2018-09-10T03:04:46.369Z,99.90
2018-09-10T03:07:15.856Z,99.90
2018-09-10T03:09:45.235Z,99.90
2018-09-10T03:12:13.719Z,99.90
2018-09-10T03:14:43.309Z,99.90
2018-09-10T03:17:11.801Z,99.90
2018-09-10T03:19:40.731Z,99.90
2018-09-10T03:22:09.211Z,99.90
2018-09-10T03:24:37.636Z,99.90
2018-09-10T03:27:06.079Z,99.90
2018-09-10T03:29:34.676Z,99.90
2018-09-10T03:32:03.100Z,99.90
2018-09-10T03:34:31.532Z,99.90
2018-09-10T03:36:59.969Z,99.90
2018-09-10T03:39:29.046Z,99.90
2018-09-10T03:41:57.520Z,99.90
2018-09-10T03:44:25.977Z,99.90
2018-09-10T03:46:54.466Z,99.90
2018-09-10T03:49:22.893Z,99.90
2018-09-10T03:51:51.303Z,99.90
2018-09-10T03:54:19.747Z,99.90
2018-09-10T03:56:48.317Z,99.90
2018-09-10T03:59:16.770Z,99.90
2018-09-10T04:01:45.311Z,99.90
2018-09-10T04:04:13.790Z,99.90
2018-09-10T04:06:42.939Z,99.90
2018-09-10T04:09:11.381Z,99.90
2018-09-10T04:11:39.837Z,99.90
2018-09-10T04:14:08.852Z,99.90
2018-09-10T04:16:37.366Z,99.90
2018-09-10T04:19:05.860Z,99.90
2018-09-10T04:21:34.436Z,99.90
2018-09-10T04:24:02.994Z,99.90
2018-09-10T04:26:31.456Z,99.90
2018-09-10T04:28:59.904Z,99.90
2018-09-10T04:31:28.360Z,99.90
2018-09-10T04:33:56.926Z,99.90
2018-09-10T04:36:26.074Z,99.90
2018-09-10T04:38:54.522Z,99.90
2018-09-10T04:41:22.963Z,99.90
2018-09-10T04:43:51.462Z,99.90
2018-09-10T04:46:19.991Z,99.90
2018-09-10T04:48:48.543Z,99.90
2018-09-10T04:51:16.994Z,99.90
2018-09-10T04:53:45.456Z,99.90
2018-09-10T04:56:14.639Z,99.90
2018-09-10T04:58:43.106Z,99.90
2018-09-10T05:01:11.643Z,99.90
2018-09-10T05:03:40.676Z,99.90
2018-09-10T05:06:09.137Z,99.90
2018-09-10T05:08:37.660Z,99.90
2018-09-10T05:11:06.112Z,99.90
2018-09-10T05:13:34.558Z,99.90
2018-09-10T05:16:02.998Z,99.90
2018-09-10T05:18:31.496Z,99.90
2018-09-10T05:20:59.941Z,99.90
2018-09-10T05:23:28.958Z,99.90
2018-09-10T05:25:57.414Z,99.90
2018-09-10T05:28:25.937Z,99.90
2018-09-10T05:30:54.384Z,99.90
2018-09-10T05:33:22.835Z,99.90
2018-09-10T05:35:51.528Z,99.90
2018-09-10T05:38:20.009Z,99.90
2018-09-10T05:40:48.430Z,99.90
2018-09-10T05:43:16.959Z,99.90
2018-09-10T05:45:52.597Z,99.90
2018-09-10T05:48:23.049Z,99.90
2018-09-10T05:50:51.578Z,99.90
2018-09-10T05:53:20.213Z,99.90
2018-09-10T05:55:48.816Z,99.90
2018-09-10T05:58:17.449Z,99.90
2018-09-10T06:00:46.150Z,99.90
2018-09-10T06:03:14.767Z,99.90
2018-09-10T06:05:44.120Z,99.90
2018-09-10T06:08:12.733Z,99.90
2018-09-10T06:10:41.420Z,99.90
2018-09-10T06:13:09.977Z,99.90
2018-09-10T06:15:38.625Z,99.90
2018-09-10T06:18:07.186Z,99.90
2018-09-10T06:20:35.788Z,99.90
2018-09-10T06:23:04.974Z,99.90
2018-09-10T06:25:33.474Z,99.90
2018-09-10T06:28:04.191Z,99.90
2018-09-10T06:30:32.872Z,99.90
2018-09-10T06:33:01.399Z,99.90
2018-09-10T06:35:30.049Z,99.90
2018-09-10T06:37:58.598Z,99.90
2018-09-10T06:40:27.107Z,99.90
2018-09-10T06:42:55.628Z,99.90
2018-09-10T06:45:24.124Z,99.90
2018-09-10T06:47:52.738Z,99.90
2018-09-10T06:50:21.235Z,99.90
2018-09-10T06:52:49.917Z,99.90
2018-09-10T06:55:18.852Z,99.90
2018-09-10T06:57:47.458Z,99.90
2018-09-10T07:00:16.195Z,99.90
2018-09-10T07:02:44.702Z,99.90
2018-09-10T07:05:13.248Z,99.90
2018-09-10T07:07:41.838Z,99.90
2018-09-10T07:10:11.631Z,99.90
2018-09-10T07:12:40.294Z,99.90
2018-09-10T07:15:08.786Z,99.90
2018-09-10T07:17:37.854Z,99.90
2018-09-10T07:20:07.618Z,99.90
2018-09-10T07:22:36.640Z,99.90
2018-09-10T07:25:05.316Z,99.90
2018-09-10T07:27:37.458Z,99.90
2018-09-10T07:30:06.905Z,99.90
2018-09-10T07:32:35.518Z,99.90
2018-09-10T07:35:04.535Z,99.90
2018-09-10T07:37:33.091Z,99.20
2018-09-10T07:40:02.197Z,98.80
2018-09-10T07:42:31.121Z,98.70
2018-09-10T07:45:00.203Z,98.60
2018-09-10T07:47:28.814Z,98.50
2018-09-10T07:49:57.460Z,98.60
2018-09-10T07:52:26.758Z,99.20
2018-09-10T07:54:55.358Z,99.40
2018-09-10T07:57:24.396Z,99.80
2018-09-10T07:59:52.949Z,99.90
2018-09-10T08:02:22.151Z,99.90
2018-09-10T08:04:50.626Z,99.90
2018-09-10T08:07:19.124Z,99.90
2018-09-10T08:09:50.274Z,99.90
2018-09-10T08:12:19.241Z,99.90
2018-09-10T08:14:51.531Z,99.90
2018-09-10T08:17:20.755Z,99.90
2018-09-10T08:19:49.403Z,99.90
2018-09-10T08:22:17.929Z,99.90
2018-09-10T08:24:47.922Z,99.90
2018-09-10T08:27:17.529Z,99.90
2018-09-10T08:29:47.083Z,99.90
2018-09-10T08:32:15.691Z,99.80
2018-09-10T08:34:44.187Z,99.70
2018-09-10T08:37:12.822Z,99.20
2018-09-10T08:39:41.480Z,99.00
2018-09-10T08:42:11.063Z,98.80
2018-09-10T08:44:40.324Z,99.00
2018-09-10T08:47:08.890Z,98.80
2018-09-10T08:49:37.459Z,98.60
2018-09-10T08:52:06.054Z,99.20
2018-09-10T08:54:34.799Z,99.30
2018-09-10T08:57:03.170Z,99.30
2018-09-10T08:59:32.661Z,98.80
2018-09-10T09:02:02.329Z,98.70
2018-09-10T09:04:31.621Z,98.80
2018-09-10T09:07:00.235Z,98.20
2018-09-10T09:09:30.550Z,97.70
2018-09-10T09:11:59.381Z,97.30
2018-09-10T09:14:28.050Z,97.30
2018-09-10T09:23:01.071Z,96.70
2018-09-10T09:26:00.144Z,96.90
2018-09-10T09:28:28.844Z,96.20
2018-09-10T09:31:01.713Z,95.80
2018-09-10T09:33:30.222Z,95.00
2018-09-10T09:36:04.945Z,94.20
2018-09-10T09:39:41.233Z,93.50
2018-09-10T09:42:15.730Z,93.00
2018-09-10T09:44:49.990Z,92.90
2018-09-10T09:47:19.283Z,92.20
2018-09-10T09:49:47.941Z,92.60
2018-09-10T09:52:16.458Z,92.40
2018-09-10T09:54:45.017Z,92.20
2018-09-10T09:57:14.148Z,92.70
2018-09-10T09:59:42.852Z,93.00
2018-09-10T10:02:24.390Z,92.70
2018-09-10T10:04:52.878Z,93.00
2018-09-10T10:07:21.983Z,92.40
2018-09-10T10:09:50.431Z,91.70
2018-09-10T10:12:19.043Z,91.70
2018-09-10T10:14:47.539Z,91.20
2018-09-10T10:17:16.137Z,91.30
2018-09-10T10:19:55.822Z,92.00
2018-09-10T10:22:24.326Z,92.20
2018-09-10T10:24:52.907Z,91.90
2018-09-10T10:27:21.985Z,91.70
2018-09-10T10:29:50.471Z,90.30
2018-09-10T10:32:18.908Z,90.20
2018-09-10T10:34:47.454Z,90.40
2018-09-10T10:37:16.083Z,90.80
2018-09-10T10:39:44.627Z,91.10
2018-09-10T10:42:13.240Z,90.90
2018-09-10T10:44:41.905Z,90.40
2018-09-10T10:47:10.422Z,90.60
2018-09-10T10:49:38.995Z,90.70
2018-09-10T10:52:07.588Z,90.60
2018-09-10T10:54:36.073Z,89.80
2018-09-10T10:57:04.604Z,89.70
2018-09-10T10:59:33.141Z,89.50
2018-09-10T11:02:01.675Z,89.80
2018-09-10T11:04:30.171Z,89.50
2018-09-10T11:06:59.353Z,89.60
2018-09-10T11:09:27.835Z,89.80
2018-09-10T11:11:56.584Z,88.90
2018-09-10T11:14:25.133Z,87.80
2018-09-10T11:16:53.589Z,86.00
2018-09-10T11:19:22.077Z,83.10
2018-09-10T11:21:50.700Z,82.40
2018-09-10T11:24:19.752Z,82.20
2018-09-10T11:26:48.324Z,81.00
2018-09-10T11:29:16.830Z,80.30
2018-09-10T11:31:45.997Z,79.40
2018-09-10T11:34:14.544Z,78.80
2018-09-10T11:36:43.763Z,80.10
2018-09-10T11:39:12.336Z,79.80
2018-09-10T11:41:40.819Z,80.20
2018-09-10T11:44:09.379Z,81.10
2018-09-10T11:46:37.872Z,81.60
2018-09-10T11:49:06.449Z,81.60
2018-09-10T11:51:35.122Z,80.90
2018-09-10T11:54:03.618Z,80.60
2018-09-10T11:56:32.189Z,79.20
2018-09-10T11:59:02.332Z,79.00
2018-09-10T12:01:30.861Z,80.00
2018-09-10T12:03:59.306Z,79.50
2018-09-10T12:06:28.607Z,79.40
2018-09-10T12:08:57.082Z,79.50
2018-09-10T12:11:26.424Z,79.60
2018-09-10T12:13:54.929Z,80.50
2018-09-10T12:16:23.427Z,80.90
2018-09-10T12:18:51.941Z,80.60
2018-09-10T12:21:21.134Z,80.40
2018-09-10T12:23:49.630Z,81.10
2018-09-10T12:26:18.657Z,81.10
2018-09-10T12:28:47.218Z,81.80
2018-09-10T12:31:15.701Z,80.90
2018-09-10T12:33:44.152Z,80.90
2018-09-10T12:36:12.857Z,81.30
2018-09-10T12:38:41.582Z,79.90
2018-09-10T12:41:10.075Z,79.70
2018-09-10T12:43:38.699Z,78.90
2018-09-10T12:46:07.605Z,78.70
2018-09-10T12:48:36.054Z,78.00
2018-09-10T12:51:04.670Z,77.20
2018-09-10T12:53:33.855Z,76.20
2018-09-10T12:56:02.362Z,76.10
2018-09-10T12:58:32.093Z,74.80
2018-09-10T13:01:00.630Z,74.00
2018-09-10T13:03:29.077Z,73.50
2018-09-10T13:05:57.708Z,71.90
2018-09-10T13:08:26.204Z,70.90
2018-09-10T13:10:55.330Z,68.60
2018-09-10T13:13:23.804Z,67.20
2018-09-10T13:15:52.336Z,67.30
2018-09-10T13:18:27.222Z,66.00
2018-09-10T13:20:55.871Z,65.20
2018-09-10T13:23:24.375Z,65.60
2018-09-10T13:25:54.005Z,66.80
2018-09-10T13:28:22.633Z,64.40
2018-09-10T13:30:51.108Z,62.10
2018-09-10T13:33:20.395Z,63.20
2018-09-10T13:35:48.936Z,64.40
2018-09-10T13:38:17.512Z,64.60
2018-09-10T13:40:46.043Z,65.30
2018-09-10T13:43:14.537Z,64.60
2018-09-10T13:45:43.123Z,64.70
2018-09-10T13:48:11.887Z,65.20
2018-09-10T13:50:40.377Z,65.70
2018-09-10T13:53:08.838Z,66.10
2018-09-10T13:55:37.279Z,66.30
2018-09-10T13:58:06.394Z,66.40
2018-09-10T14:00:34.873Z,66.60
2018-09-10T14:03:03.406Z,67.30
2018-09-10T14:05:31.831Z,67.80
2018-09-10T14:08:00.434Z,68.10
2018-09-10T14:10:28.983Z,68.40
2018-09-10T14:12:57.469Z,68.80
2018-09-10T14:15:26.228Z,70.00
2018-09-10T14:17:54.715Z,70.40
2018-09-10T14:20:23.246Z,70.90
2018-09-10T14:22:51.746Z,71.40
2018-09-10T14:25:21.438Z,71.80
2018-09-10T14:27:49.955Z,72.50
2018-09-10T14:30:18.412Z,72.30
2018-09-10T14:32:47.094Z,73.90
2018-09-10T14:35:15.624Z,74.20
2018-09-10T14:37:44.486Z,75.00
2018-09-10T14:40:13.810Z,75.00
2018-09-10T14:42:42.377Z,75.80
2018-09-10T14:45:10.855Z,76.20
2018-09-10T14:47:39.911Z,76.80
2018-09-10T14:50:08.493Z,77.20
2018-09-10T14:52:36.981Z,77.10
2018-09-10T14:55:05.432Z,76.80
2018-09-10T14:57:33.892Z,77.30
2018-09-10T15:00:02.924Z,77.50
2018-09-10T15:02:31.401Z,77.70
2018-09-10T15:04:59.834Z,77.50
2018-09-10T15:07:28.318Z,77.40
2018-09-10T15:09:56.780Z,77.40
2018-09-10T15:12:25.245Z,77.70
2018-09-10T15:14:53.712Z,77.40
2018-09-10T15:17:22.256Z,76.80
2018-09-10T15:19:50.813Z,77.20
2018-09-10T15:22:19.272Z,76.90
2018-09-10T15:24:47.765Z,79.10
2018-09-10T15:27:16.291Z,79.90
2018-09-10T15:29:44.727Z,80.70
2018-09-10T15:32:13.192Z,81.70
2018-09-10T15:34:41.760Z,83.00
2018-09-10T15:37:10.280Z,83.60
2018-09-10T15:39:38.753Z,84.00
2018-09-10T15:42:07.211Z,84.10
2018-09-10T15:44:35.774Z,84.00
2018-09-10T15:47:05.032Z,83.90
2018-09-10T15:49:33.478Z,84.10
2018-09-10T15:52:02.100Z,84.20
2018-09-10T15:54:31.084Z,84.10
2018-09-10T15:56:59.646Z,84.60
2018-09-10T15:59:28.106Z,84.70
2018-09-10T16:01:56.576Z,84.70
2018-09-10T16:04:25.046Z,85.10
2018-09-10T16:06:53.489Z,84.90
2018-09-10T16:09:22.078Z,85.00
2018-09-10T16:11:50.674Z,85.40
2018-09-10T16:14:19.223Z,85.80
2018-09-10T16:16:47.874Z,87.00
2018-09-10T16:19:16.456Z,87.90
2018-09-10T16:21:44.959Z,87.10
2018-09-10T16:24:13.670Z,87.80
2018-09-10T16:26:42.225Z,87.40
2018-09-10T16:29:10.726Z,86.90
2018-09-10T16:31:39.165Z,86.90
2018-09-10T16:34:07.741Z,87.50
2018-09-10T16:36:36.900Z,87.30
2018-09-10T16:39:08.167Z,87.80
2018-09-10T16:41:36.705Z,89.30
2018-09-10T16:44:05.381Z,89.20
2018-09-10T16:46:33.944Z,90.00
2018-09-10T16:49:02.689Z,90.20
2018-09-10T16:51:31.246Z,90.10
2018-09-10T16:54:00.357Z,90.60
2018-09-10T16:56:28.924Z,91.00
2018-09-10T16:58:57.505Z,91.10
2018-09-10T17:01:26.311Z,91.40
2018-09-10T17:03:54.814Z,91.70
2018-09-10T17:06:24.218Z,91.80
2018-09-10T17:08:52.700Z,92.30
2018-09-10T17:11:21.173Z,92.30
2018-09-10T17:13:50.038Z,92.40
2018-09-10T17:16:18.539Z,92.70
2018-09-10T17:18:47.781Z,93.10
2018-09-10T17:21:16.366Z,94.10
2018-09-10T17:23:45.033Z,94.30
2018-09-10T17:26:13.501Z,94.50
2018-09-10T17:28:43.887Z,94.80
2018-09-10T17:31:12.364Z,94.80
2018-09-10T17:33:40.899Z,95.40
2018-09-10T17:36:09.411Z,95.50
2018-09-10T17:38:37.924Z,95.60
2018-09-10T17:41:06.462Z,95.80
2018-09-10T17:43:34.926Z,96.00
2018-09-10T17:46:04.115Z,96.30
2018-09-10T17:48:32.634Z,96.60
2018-09-10T17:51:01.348Z,97.50
2018-09-10T17:53:32.120Z,97.60
2018-09-10T17:56:00.596Z,97.60
2018-09-10T17:58:29.775Z,98.00
2018-09-10T18:00:58.296Z,98.40
2018-09-10T18:03:26.824Z,98.50
2018-09-10T18:05:55.328Z,98.80
2018-09-10T18:08:23.813Z,99.20
2018-09-10T18:10:52.406Z,99.40
2018-09-10T18:13:21.028Z,99.60
2018-09-10T18:15:50.260Z,99.70
2018-09-10T18:18:18.797Z,99.80
2018-09-10T18:20:47.274Z,99.90
2018-09-10T18:23:15.962Z,99.90
2018-09-10T18:25:44.392Z,99.90
2018-09-10T18:28:13.608Z,99.90
2018-09-10T18:30:42.180Z,99.90
2018-09-10T18:33:11.305Z,99.90
2018-09-10T18:35:40.004Z,99.90
2018-09-10T18:38:09.201Z,99.90
2018-09-10T18:40:37.729Z,99.90
2018-09-10T18:43:06.244Z,99.90
2018-09-10T18:45:34.734Z,99.90
2018-09-10T18:48:03.909Z,99.90
2018-09-10T18:50:32.823Z,99.90
2018-09-10T18:53:01.366Z,99.90
2018-09-10T18:55:30.440Z,99.90
2018-09-10T18:57:58.992Z,99.90
2018-09-10T19:00:27.601Z,99.90
2018-09-10T19:02:56.117Z,99.90
2018-09-10T19:05:24.634Z,99.90
2018-09-10T19:07:53.161Z,99.90
2018-09-10T19:10:21.849Z,99.90
2018-09-10T19:12:50.390Z,99.90
2018-09-10T19:15:18.977Z,99.90
2018-09-10T19:17:47.648Z,99.90
2018-09-10T19:20:16.196Z,99.90
2018-09-10T19:22:44.679Z,99.90
2018-09-10T19:25:13.192Z,99.90
2018-09-10T19:27:41.894Z,99.90
2018-09-10T19:30:10.391Z,99.90
2018-09-10T19:32:38.985Z,99.90
2018-09-10T19:35:07.505Z,99.90
2018-09-10T19:37:36.102Z,99.90
2018-09-10T19:40:04.594Z,99.90
2018-09-10T19:42:33.975Z,99.90
2018-09-10T19:45:03.041Z,99.90
2018-09-10T19:47:31.498Z,99.90
2018-09-10T19:50:00.064Z,99.90
2018-09-10T19:52:28.627Z,99.90
2018-09-10T19:54:57.105Z,99.90
2018-09-10T19:57:25.635Z,99.90
2018-09-10T19:59:54.950Z,99.90
2018-09-10T20:02:23.491Z,99.90
2018-09-10T20:04:52.563Z,99.90
2018-09-10T20:07:21.066Z,99.90
2018-09-10T20:09:49.579Z,99.90
2018-09-10T20:12:18.715Z,99.90
2018-09-10T20:14:47.300Z,99.90
2018-09-10T20:17:16.374Z,99.90
2018-09-10T20:19:44.933Z,99.90
2018-09-10T20:22:15.259Z,99.90
2018-09-10T20:24:43.816Z,99.90
2018-09-10T20:27:13.104Z,99.90
2018-09-10T20:29:41.605Z,99.90
2018-09-10T20:32:10.798Z,99.90
2018-09-10T20:34:39.984Z,99.90
2018-09-10T20:37:08.456Z,99.90
2018-09-10T20:39:37.084Z,99.90
2018-09-10T20:42:06.290Z,99.90
2018-09-10T20:44:34.835Z,99.90
2018-09-10T20:47:03.434Z,99.90
2018-09-10T20:49:32.051Z,99.90
2018-09-10T20:52:00.657Z,99.90
2018-09-10T20:54:29.116Z,99.90
2018-09-10T20:56:57.692Z,99.90
2018-09-10T20:59:33.475Z,99.90
2018-09-10T21:02:01.908Z,99.90
2018-09-10T21:04:30.341Z,99.90
2018-09-10T21:06:58.924Z,99.90
2018-09-10T21:09:27.438Z,99.90
2018-09-10T21:11:56.077Z,99.90
2018-09-10T21:14:24.543Z,99.90
2018-09-10T21:16:53.096Z,99.90
2018-09-10T21:19:22.107Z,99.90
2018-09-10T21:21:50.852Z,99.90
2018-09-10T21:24:20.012Z,99.90
2018-09-10T21:26:48.477Z,99.90
2018-09-10T21:29:16.926Z,99.90
2018-09-10T21:31:45.422Z,99.90
2018-09-10T21:34:13.872Z,99.90
2018-09-10T21:36:43.719Z,99.90
2018-09-10T21:39:12.367Z,99.90
2018-09-10T21:41:40.858Z,99.90
2018-09-10T21:44:09.889Z,99.90
2018-09-10T21:46:38.354Z,99.90
2018-09-10T21:49:07.458Z,99.90
2018-09-10T21:51:36.085Z,99.90
2018-09-10T21:54:04.539Z,99.90
2018-09-10T21:56:32.990Z,99.90
2018-09-10T21:59:01.475Z,99.90
2018-09-10T22:01:29.996Z,99.90
2018-09-10T22:03:58.929Z,99.90
2018-09-10T22:06:27.356Z,99.90
2018-09-10T22:08:55.829Z,99.90
2018-09-10T22:11:24.339Z,99.90
2018-09-10T22:13:52.879Z,99.90
2018-09-10T22:16:21.494Z,99.90
2018-09-10T22:18:50.465Z,99.90
2018-09-10T22:21:18.938Z,99.90
2018-09-10T22:23:47.453Z,99.90
2018-09-10T22:26:15.969Z,99.90
2018-09-10T22:28:44.893Z,99.90
2018-09-10T22:31:13.350Z,99.90
2018-09-10T22:33:42.099Z,99.90
2018-09-10T22:36:10.619Z,99.90
2018-09-10T22:38:39.049Z,99.90
2018-09-10T22:41:07.529Z,99.90
2018-09-10T22:43:36.032Z,99.90
2018-09-10T22:46:04.487Z,99.90
2018-09-10T22:48:32.959Z,99.90
2018-09-10T22:51:01.498Z,99.90
2018-09-10T22:53:30.005Z,99.90
2018-09-10T22:55:58.664Z,99.90
2018-09-10T22:58:27.214Z,99.90
2018-09-10T23:00:56.489Z,99.90
2018-09-10T23:03:24.940Z,99.90
2018-09-10T23:05:54.573Z,99.90
2018-09-10T23:08:23.088Z,99.90
2018-09-10T23:10:51.628Z,99.90
2018-09-10T23:13:20.061Z,99.90
2018-09-10T23:15:48.781Z,99.90
2018-09-10T23:18:17.266Z,99.90
2018-09-10T23:20:45.779Z,99.90
2018-09-10T23:23:14.257Z,99.90
2018-09-10T23:25:43.205Z,99.90
2018-09-10T23:28:11.715Z,99.90
2018-09-10T23:30:40.183Z,99.90
2018-09-10T23:33:08.716Z,99.90
2018-09-10T23:35:37.295Z,99.90
2018-09-10T23:38:05.854Z,99.90
2018-09-10T23:40:35.470Z,99.90
2018-09-10T23:43:04.031Z,99.90
2018-09-10T23:45:32.505Z,99.90
2018-09-10T23:48:01.435Z,99.90
2018-09-10T23:50:29.906Z,99.90
2018-09-10T23:52:58.364Z,99.90
2018-09-10T23:55:26.797Z,99.90
2018-09-10T23:57:55.583Z,99.90
